createdAt,value
2019-02-14T00:01:46.048Z,36.20
2019-02-14T00:04:17.173Z,40.53
2019-02-14T00:06:48.090Z,34.43
2019-02-14T00:09:19.033Z,32.10
2019-02-14T00:11:50.142Z,40.43
2019-02-14T00:14:21.223Z,33.87
2019-02-14T00:16:52.251Z,46.87
2019-02-14T00:19:23.270Z,36.73
2019-02-14T00:21:54.266Z,35.03
2019-02-14T00:24:25.299Z,37.43
2019-02-14T00:26:56.190Z,34.27
2019-02-14T00:29:27.162Z,36.60
2019-02-14T00:31:58.242Z,35.03
2019-02-14T00:34:31.931Z,34.50
2019-02-14T00:37:02.885Z,35.30
2019-02-14T00:39:33.903Z,33.93
2019-02-14T00:42:04.808Z,39.80
2019-02-14T00:44:35.782Z,30.87
2019-02-14T00:47:06.777Z,35.07
2019-02-14T00:49:37.746Z,35.47
2019-02-14T00:52:08.745Z,31.10
2019-02-14T00:54:40.295Z,29.23
2019-02-14T00:57:11.895Z,34.77
2019-02-14T00:59:42.930Z,33.07
2019-02-14T01:02:13.892Z,33.57
2019-02-14T01:04:44.905Z,30.93
2019-02-14T01:07:15.760Z,35.43
2019-02-14T01:09:46.728Z,35.13
2019-02-14T01:12:17.597Z,31.80
2019-02-14T01:14:48.627Z,36.73
2019-02-14T01:17:19.700Z,24.33
2019-02-14T01:19:50.874Z,32.00
2019-02-14T01:22:21.957Z,26.20
2019-02-14T01:24:53.095Z,34.83
2019-02-14T01:27:24.288Z,40.27
2019-02-14T01:29:55.325Z,28.97
2019-02-14T01:32:26.251Z,29.73
2019-02-14T01:34:57.214Z,34.03
2019-02-14T01:37:28.121Z,25.60
2019-02-14T01:39:59.193Z,29.50
2019-02-14T01:42:30.207Z,39.17
2019-02-14T01:45:01.250Z,38.93
2019-02-14T01:47:32.211Z,35.17
2019-02-14T01:50:03.273Z,31.40
2019-02-14T01:52:34.274Z,28.87
2019-02-14T01:55:05.460Z,35.10
2019-02-14T01:57:36.347Z,29.00
2019-02-14T02:00:10.997Z,30.43
2019-02-14T02:02:42.191Z,28.63
2019-02-14T02:05:14.256Z,34.90
2019-02-14T02:07:45.138Z,30.87
2019-02-14T02:10:16.289Z,29.50
2019-02-14T02:12:47.193Z,29.57
2019-02-14T02:15:19.754Z,31.87
2019-02-14T02:17:50.774Z,30.73
2019-02-14T02:20:21.821Z,27.60
2019-02-14T02:22:53.040Z,30.80
2019-02-14T02:25:24.053Z,30.53
2019-02-14T02:27:54.956Z,26.53
2019-02-14T02:30:25.914Z,25.50
2019-02-14T02:32:56.753Z,29.73
2019-02-14T02:35:27.739Z,25.53
2019-02-14T02:37:58.637Z,28.60
2019-02-14T02:40:29.576Z,27.97
2019-02-14T02:43:00.426Z,25.33
2019-02-14T02:45:31.375Z,26.30
2019-02-14T02:48:02.327Z,33.37
2019-02-14T02:50:33.305Z,23.43
2019-02-14T02:53:04.300Z,23.47
2019-02-14T02:55:35.262Z,23.27
2019-02-14T02:58:06.143Z,26.87
2019-02-14T03:00:37.326Z,24.43
2019-02-14T03:03:08.454Z,19.57
2019-02-14T03:05:39.544Z,21.73
2019-02-14T03:08:10.493Z,28.03
2019-02-14T03:10:42.037Z,26.77
2019-02-14T03:13:13.108Z,27.27
2019-02-14T03:15:44.067Z,24.17
2019-02-14T03:18:15.052Z,28.40
2019-02-14T03:20:45.926Z,23.73
2019-02-14T03:23:16.856Z,26.97
2019-02-14T03:25:48.402Z,24.57
2019-02-14T03:28:19.432Z,26.67
2019-02-14T03:30:50.485Z,22.60
2019-02-14T03:33:22.581Z,27.87
2019-02-14T03:35:53.557Z,23.87
2019-02-14T03:38:24.438Z,22.20
2019-02-14T03:40:55.518Z,22.23
2019-02-14T03:43:26.392Z,19.10
2019-02-14T03:45:58.465Z,21.67
2019-02-14T03:48:29.626Z,20.83
2019-02-14T03:51:00.626Z,25.30
2019-02-14T03:53:32.359Z,28.17
2019-02-14T03:56:03.323Z,22.03
2019-02-14T03:58:34.210Z,24.93
2019-02-14T04:01:05.166Z,25.43
2019-02-14T04:03:36.055Z,21.93
2019-02-14T04:06:09.287Z,25.70
2019-02-14T04:08:41.521Z,23.50
2019-02-14T04:11:12.453Z,24.87
2019-02-14T04:13:43.379Z,21.13
2019-02-14T04:16:14.263Z,23.60
2019-02-14T04:18:45.156Z,25.90
2019-02-14T04:21:16.191Z,26.00
2019-02-14T04:23:47.058Z,28.33
2019-02-14T04:26:17.960Z,33.87
2019-02-14T04:28:48.952Z,35.83
2019-02-14T04:31:19.940Z,32.13
2019-02-14T04:33:50.843Z,28.93
2019-02-14T04:36:21.882Z,37.63
2019-02-14T04:38:53.053Z,24.80
2019-02-14T04:41:24.131Z,31.17
2019-02-14T04:43:55.758Z,34.20
2019-02-14T04:46:27.580Z,34.73
2019-02-14T04:48:59.260Z,24.20
2019-02-14T04:51:30.869Z,34.47
2019-02-14T04:54:02.502Z,38.63
2019-02-14T04:56:33.525Z,29.37
2019-02-14T04:59:04.717Z,28.57
2019-02-14T05:01:35.807Z,27.30
2019-02-14T05:04:06.837Z,26.63
2019-02-14T05:06:44.213Z,23.80
2019-02-14T05:09:12.427Z,28.40
2019-02-14T05:11:43.525Z,24.40
2019-02-14T05:14:14.562Z,31.07
2019-02-14T05:16:45.641Z,28.53
2019-02-14T05:19:16.740Z,24.03
2019-02-14T05:21:47.938Z,22.23
2019-02-14T05:24:20.508Z,23.27
2019-02-14T05:26:52.708Z,19.10
2019-02-14T05:29:34.170Z,23.07
2019-02-14T05:32:06.940Z,20.47
2019-02-14T05:34:37.829Z,19.27
2019-02-14T05:37:09.487Z,18.00
2019-02-14T05:39:41.202Z,21.33
2019-02-14T05:42:12.778Z,19.50
2019-02-14T05:44:43.891Z,18.93
2019-02-14T05:47:15.081Z,19.17
2019-02-14T05:49:46.175Z,19.43
2019-02-14T05:52:17.396Z,16.17
2019-02-14T05:54:48.388Z,17.43
2019-02-14T05:57:19.509Z,18.37
2019-02-14T05:59:50.419Z,19.73
2019-02-14T06:02:22.015Z,25.87
2019-02-14T06:04:52.940Z,29.87
2019-02-14T06:07:24.483Z,36.53
2019-02-14T06:09:55.475Z,19.23
2019-02-14T06:12:26.449Z,23.13
2019-02-14T06:14:57.444Z,22.53
2019-02-14T06:17:28.403Z,18.53
2019-02-14T06:20:00.975Z,18.73
2019-02-14T06:22:32.068Z,16.40
2019-02-14T06:25:03.089Z,22.50
2019-02-14T06:27:34.248Z,18.13
2019-02-14T06:30:05.818Z,20.10
2019-02-14T06:32:36.879Z,16.73
2019-02-14T06:35:09.130Z,19.43
2019-02-14T06:37:40.587Z,20.50
2019-02-14T06:40:12.810Z,19.17
2019-02-14T06:42:43.737Z,21.40
2019-02-14T06:45:15.650Z,25.63
2019-02-14T06:47:47.499Z,30.80
2019-02-14T06:50:19.220Z,22.17
2019-02-14T06:52:51.054Z,25.43
2019-02-14T06:55:22.060Z,27.30
2019-02-14T06:57:53.045Z,20.00
2019-02-14T07:00:24.018Z,24.83
2019-02-14T07:02:55.656Z,26.90
2019-02-14T07:05:27.336Z,32.27
2019-02-14T07:07:58.931Z,20.50
2019-02-14T07:10:30.491Z,20.67
2019-02-14T07:13:02.071Z,22.37
2019-02-14T07:15:33.670Z,21.93
2019-02-14T07:18:04.832Z,22.93
2019-02-14T07:20:40.196Z,21.30
2019-02-14T07:23:19.571Z,17.73
2019-02-14T07:25:57.444Z,26.53
2019-02-14T07:28:36.739Z,22.43
2019-02-14T07:31:14.021Z,29.13
2019-02-14T07:33:45.759Z,71.27
2019-02-14T07:36:16.916Z,40.40
2019-02-14T07:38:48.602Z,75.53
2019-02-14T07:41:19.593Z,27.30
2019-02-14T07:43:51.201Z,23.23
2019-02-14T07:46:23.067Z,27.47
2019-02-14T07:48:56.058Z,22.43
2019-02-14T07:51:27.728Z,24.00
2019-02-14T07:53:59.364Z,22.43
2019-02-14T07:56:31.096Z,26.37
2019-02-14T07:59:02.835Z,23.43
2019-02-14T08:01:34.459Z,19.83
2019-02-14T08:04:06.738Z,20.07
2019-02-14T08:06:38.318Z,20.53
2019-02-14T08:09:09.956Z,21.13
2019-02-14T08:11:41.111Z,23.00
2019-02-14T08:14:12.082Z,19.73
2019-02-14T08:16:43.230Z,20.67
2019-02-14T08:19:14.737Z,19.63
2019-02-14T08:21:46.500Z,21.07
2019-02-14T08:24:17.629Z,17.87
2019-02-14T08:26:49.101Z,23.60
2019-02-14T08:29:20.723Z,17.17
2019-02-14T08:31:52.240Z,23.87
2019-02-14T08:34:23.964Z,30.37
2019-02-14T08:36:55.625Z,29.10
2019-02-14T08:39:27.443Z,36.73
2019-02-14T08:41:58.544Z,21.33
2019-02-14T08:44:30.121Z,28.70
2019-02-14T08:47:01.613Z,21.53
2019-02-14T08:49:35.192Z,26.87
2019-02-14T08:52:06.535Z,24.17
2019-02-14T08:54:38.598Z,25.80
2019-02-14T08:57:10.296Z,21.23
2019-02-14T08:59:41.919Z,22.23
2019-02-14T09:02:13.558Z,25.20
2019-02-14T09:04:45.227Z,23.77
2019-02-14T09:07:16.197Z,19.50
2019-02-14T09:09:48.285Z,29.17
2019-02-14T09:12:19.897Z,22.77
2019-02-14T09:14:50.986Z,24.70
2019-02-14T09:17:21.873Z,24.20
2019-02-14T09:19:53.621Z,22.47
2019-02-14T09:22:24.744Z,17.53
2019-02-14T09:24:55.962Z,18.90
2019-02-14T09:27:27.639Z,18.70
2019-02-14T09:29:59.555Z,18.60
2019-02-14T09:32:31.300Z,15.37
2019-02-14T09:35:03.422Z,16.13
2019-02-14T09:37:35.047Z,14.07
2019-02-14T09:40:06.767Z,16.53
2019-02-14T09:42:38.225Z,16.10
2019-02-14T09:45:11.021Z,14.93
2019-02-14T09:47:42.573Z,11.67
2019-02-14T09:50:13.945Z,10.33
2019-02-14T09:52:46.737Z,10.60
2019-02-14T09:55:18.494Z,10.60
2019-02-14T09:57:50.231Z,11.80
2019-02-14T10:00:21.956Z,10.93
2019-02-14T10:02:53.628Z,14.83
2019-02-14T10:05:25.355Z,14.87
2019-02-14T10:07:56.915Z,11.67
2019-02-14T10:10:29.185Z,14.83
2019-02-14T10:13:00.935Z,15.97
2019-02-14T10:15:32.602Z,14.20
2019-02-14T10:18:04.055Z,16.90
2019-02-14T10:20:36.334Z,16.73
2019-02-14T10:23:07.934Z,16.50
2019-02-14T10:25:39.700Z,21.13
2019-02-14T10:28:11.293Z,24.30
2019-02-14T10:30:42.914Z,31.30
2019-02-14T10:33:14.438Z,36.20
2019-02-14T10:35:46.201Z,38.90
2019-02-14T10:38:22.260Z,35.67
2019-02-14T10:40:51.050Z,36.23
2019-02-14T10:43:23.244Z,31.87
2019-02-14T10:45:54.967Z,30.87
2019-02-14T10:48:26.662Z,31.07
2019-02-14T10:50:59.031Z,36.80
2019-02-14T10:53:31.040Z,37.23
2019-02-14T10:56:02.684Z,36.03
2019-02-14T10:58:34.517Z,34.13
2019-02-14T11:01:07.386Z,33.97
2019-02-14T11:03:39.364Z,38.83
2019-02-14T11:06:11.284Z,35.37
2019-02-14T11:08:42.837Z,39.57
2019-02-14T11:11:14.709Z,37.73
2019-02-14T11:13:46.843Z,37.97
2019-02-14T11:16:18.543Z,41.03
2019-02-14T11:18:50.528Z,39.57
2019-02-14T11:21:22.274Z,36.13
2019-02-14T11:23:53.898Z,38.20
2019-02-14T11:26:25.772Z,36.30
2019-02-14T11:28:57.378Z,44.17
2019-02-14T11:31:29.150Z,41.20
2019-02-14T11:34:00.807Z,42.80
2019-02-14T11:36:33.076Z,42.27
2019-02-14T11:39:06.301Z,46.53
2019-02-14T11:41:38.133Z,50.43
2019-02-14T11:44:09.834Z,44.07
2019-02-14T11:46:40.870Z,40.53
2019-02-14T11:49:12.340Z,37.77
2019-02-14T11:51:44.037Z,35.63
2019-02-14T11:54:15.807Z,31.53
2019-02-14T11:56:47.519Z,29.40
2019-02-14T11:59:19.247Z,26.57
2019-02-14T12:01:55.301Z,27.40
2019-02-14T12:04:24.581Z,20.37
2019-02-14T12:06:56.715Z,18.10
2019-02-14T12:09:28.493Z,21.47
2019-02-14T12:11:59.560Z,15.30
2019-02-14T12:14:31.111Z,15.90
2019-02-14T12:17:04.103Z,17.40
2019-02-14T12:19:36.223Z,16.67
2019-02-14T12:22:08.036Z,18.97
2019-02-14T12:24:39.373Z,21.93
2019-02-14T12:27:10.952Z,20.37
2019-02-14T12:29:42.457Z,21.73
2019-02-14T12:32:14.289Z,19.77
2019-02-14T12:34:46.091Z,18.33
2019-02-14T12:37:17.687Z,20.77
2019-02-14T12:39:50.649Z,17.80
2019-02-14T12:42:22.360Z,20.93
2019-02-14T12:44:54.766Z,18.73
2019-02-14T12:47:28.120Z,19.37
2019-02-14T12:49:59.788Z,17.70
2019-02-14T12:52:30.845Z,22.67
2019-02-14T12:55:05.053Z,22.93
2019-02-14T12:57:36.952Z,22.43
2019-02-14T13:00:12.405Z,26.30
2019-02-14T13:02:44.320Z,24.40
2019-02-14T13:05:16.099Z,20.00
2019-02-14T13:07:47.331Z,22.63
2019-02-14T13:10:18.968Z,28.17
2019-02-14T13:12:50.856Z,26.00
2019-02-14T13:15:23.279Z,23.53
2019-02-14T13:17:55.501Z,21.17
2019-02-14T13:20:26.640Z,19.83
2019-02-14T13:22:58.150Z,23.73
2019-02-14T13:25:29.781Z,26.53
2019-02-14T13:28:01.502Z,27.93
2019-02-14T13:30:33.105Z,22.33
2019-02-14T13:33:05.050Z,20.77
2019-02-14T13:35:36.118Z,22.63
2019-02-14T13:38:07.265Z,19.60
2019-02-14T13:40:38.838Z,21.23
2019-02-14T13:43:10.516Z,18.60
2019-02-14T13:45:42.195Z,17.93
2019-02-14T13:48:14.179Z,19.20
2019-02-14T13:50:45.914Z,18.57
2019-02-14T13:53:17.641Z,20.77
2019-02-14T13:55:49.143Z,24.63
2019-02-14T13:58:20.857Z,19.70
2019-02-14T14:00:52.567Z,22.90
2019-02-14T14:03:23.706Z,18.33
2019-02-14T14:05:55.431Z,20.20
2019-02-14T14:08:27.139Z,23.00
2019-02-14T14:10:58.810Z,23.33
2019-02-14T14:13:29.848Z,25.13
2019-02-14T14:16:01.461Z,27.53
2019-02-14T14:18:33.259Z,28.20
2019-02-14T14:21:04.325Z,30.77
2019-02-14T14:23:35.899Z,31.47
2019-02-14T14:26:07.607Z,29.30
2019-02-14T14:28:39.476Z,30.07
2019-02-14T14:31:10.606Z,23.93
2019-02-14T14:33:41.579Z,25.17
2019-02-14T14:36:12.539Z,24.40
2019-02-14T14:38:44.101Z,29.77
2019-02-14T14:41:15.682Z,24.97
2019-02-14T14:43:55.698Z,27.17
2019-02-14T14:46:34.678Z,21.00
2019-02-14T14:49:06.443Z,23.20
2019-02-14T14:51:37.975Z,22.53
2019-02-14T14:54:09.749Z,22.93
2019-02-14T14:56:41.265Z,24.10
2019-02-14T14:59:13.224Z,25.73
2019-02-14T15:01:45.122Z,27.13
2019-02-14T15:04:16.825Z,27.40
2019-02-14T15:06:48.507Z,33.93
2019-02-14T15:09:20.144Z,36.67
2019-02-14T15:11:52.024Z,39.97
2019-02-14T15:14:24.825Z,35.30
2019-02-14T15:16:56.305Z,37.03
2019-02-14T15:19:28.145Z,44.57
2019-02-14T15:21:59.157Z,38.37
2019-02-14T15:24:30.918Z,42.13
2019-02-14T15:27:02.759Z,43.63
2019-02-14T15:29:34.516Z,46.90
2019-02-14T15:32:05.474Z,45.10
2019-02-14T15:34:38.456Z,48.90
2019-02-14T15:37:10.065Z,50.60
2019-02-14T15:39:44.430Z,48.43
2019-02-14T15:42:16.019Z,47.53
2019-02-14T15:44:47.769Z,53.90
2019-02-14T15:47:18.842Z,48.30
2019-02-14T15:49:50.538Z,55.83
2019-02-14T15:52:21.464Z,46.67
2019-02-14T15:54:52.527Z,46.70
2019-02-14T15:57:24.613Z,44.43
2019-02-14T15:59:55.627Z,44.40
2019-02-14T16:02:28.562Z,42.63
2019-02-14T16:04:59.834Z,41.87
2019-02-14T16:07:31.594Z,40.47
2019-02-14T16:10:03.787Z,43.97
2019-02-14T16:12:35.308Z,47.83
2019-02-14T16:15:09.013Z,50.93
2019-02-14T16:17:39.222Z,50.50
2019-02-14T16:20:11.282Z,54.33
2019-02-14T16:22:44.043Z,53.60
2019-02-14T16:25:15.381Z,57.30
2019-02-14T16:27:48.117Z,58.50
2019-02-14T16:30:19.428Z,66.03
2019-02-14T16:32:50.976Z,66.83
2019-02-14T16:35:22.257Z,66.30
2019-02-14T16:37:53.404Z,68.17
2019-02-14T16:40:27.779Z,72.13
2019-02-14T16:42:58.075Z,61.03
2019-02-14T16:45:29.324Z,75.60
2019-02-14T16:48:00.496Z,65.03
2019-02-14T16:50:31.586Z,65.80
2019-02-14T16:53:02.775Z,64.70
2019-02-14T16:55:34.193Z,71.87
2019-02-14T16:58:05.280Z,72.57
2019-02-14T17:00:36.396Z,68.93
2019-02-14T17:03:08.316Z,70.47
2019-02-14T17:05:42.586Z,50.73
2019-02-14T17:08:13.966Z,52.60
2019-02-14T17:10:46.937Z,47.17
2019-02-14T17:13:21.725Z,43.73
2019-02-14T17:15:52.901Z,52.47
2019-02-14T17:18:27.060Z,42.63
2019-02-14T17:20:58.134Z,48.17
2019-02-14T17:23:29.399Z,49.33
2019-02-14T17:26:00.697Z,50.10
2019-02-14T17:28:32.288Z,50.43
2019-02-14T17:31:04.821Z,52.40
2019-02-14T17:33:35.811Z,51.23
2019-02-14T17:36:07.159Z,56.53
2019-02-14T17:38:38.162Z,52.50
2019-02-14T17:41:10.059Z,56.37
2019-02-14T17:43:41.170Z,64.00
2019-02-14T17:46:12.559Z,44.53
2019-02-14T17:48:43.860Z,48.33
2019-02-14T17:51:16.091Z,48.03
2019-02-14T17:53:50.382Z,45.07
2019-02-14T17:56:34.522Z,46.83
2019-02-14T17:59:05.519Z,52.90
2019-02-14T18:01:36.767Z,51.13
2019-02-14T18:04:08.376Z,48.13
2019-02-14T18:06:40.057Z,48.83
2019-02-14T18:09:11.841Z,51.90
2019-02-14T18:11:43.128Z,48.70
2019-02-14T18:14:14.590Z,51.87
2019-02-14T18:16:45.742Z,49.07
2019-02-14T18:19:17.196Z,52.10
2019-02-14T18:21:49.002Z,50.93
2019-02-14T18:24:20.684Z,54.17
2019-02-14T18:26:51.865Z,52.67
2019-02-14T18:29:24.051Z,61.10
2019-02-14T18:31:55.146Z,53.33
2019-02-14T18:34:26.276Z,51.67
2019-02-14T18:39:37.664Z,94.00
2019-02-14T18:42:09.487Z,56.47
2019-02-14T18:44:41.246Z,53.93
2019-02-14T18:47:12.863Z,54.30
2019-02-14T18:49:44.101Z,58.07
2019-02-14T18:52:15.251Z,59.07
2019-02-14T18:54:46.409Z,54.33
2019-02-14T18:57:17.610Z,59.80
2019-02-14T18:59:48.698Z,52.33
2019-02-14T19:02:19.686Z,55.83
2019-02-14T19:04:50.714Z,56.13
2019-02-14T19:07:22.289Z,57.30
2019-02-14T19:09:53.920Z,60.40
2019-02-14T19:12:29.165Z,66.40
2019-02-14T19:15:00.824Z,69.53
2019-02-14T19:17:32.225Z,71.27
2019-02-14T19:20:14.936Z,61.90
2019-02-14T19:22:57.903Z,74.67
2019-02-14T19:26:24.727Z,68.23
2019-02-14T19:30:04.297Z,69.47
2019-02-14T19:36:59.311Z,62.00
2019-02-14T19:40:05.598Z,64.30
2019-02-14T19:43:10.264Z,65.23
2019-02-14T19:49:22.452Z,71.17
2019-02-14T19:52:14.066Z,76.63
2019-02-14T19:55:15.022Z,72.73
2019-02-14T19:57:55.506Z,71.93
2019-02-14T20:00:27.374Z,69.60
2019-02-14T20:02:59.657Z,74.23
2019-02-14T20:05:31.020Z,72.50
2019-02-14T20:08:02.332Z,70.07
2019-02-14T20:10:34.656Z,79.33
2019-02-14T20:13:08.904Z,75.23
2019-02-14T20:15:40.599Z,75.13
2019-02-14T20:18:12.066Z,103.43
2019-02-14T20:20:43.427Z,79.13
2019-02-14T20:23:14.759Z,72.83
2019-02-14T20:25:48.560Z,72.67
2019-02-14T20:28:21.367Z,70.97
2019-02-14T20:30:53.219Z,63.30
2019-02-14T20:33:24.797Z,63.10
2019-02-14T20:35:58.577Z,63.03
2019-02-14T20:38:31.479Z,61.73
2019-02-14T20:41:02.541Z,63.60
2019-02-14T20:43:33.604Z,59.80
2019-02-14T20:46:04.922Z,66.33
2019-02-14T20:48:39.477Z,59.23
2019-02-14T20:51:12.647Z,60.33
2019-02-14T20:53:44.240Z,65.77
2019-02-14T20:56:15.485Z,60.63
2019-02-14T20:58:46.577Z,63.37
2019-02-14T21:01:21.473Z,65.57
2019-02-14T21:03:55.364Z,64.70
2019-02-14T21:06:28.325Z,66.07
2019-02-14T21:08:59.566Z,64.93
2019-02-14T21:11:34.048Z,67.60
2019-02-14T21:14:09.468Z,68.83
2019-02-14T21:16:40.646Z,72.10
2019-02-14T21:19:11.976Z,72.23
2019-02-14T21:21:53.928Z,72.10
2019-02-14T21:24:28.025Z,60.20
2019-02-14T21:26:59.864Z,68.27
2019-02-14T21:29:31.494Z,68.83
2019-02-14T21:32:03.013Z,66.00
2019-02-14T21:34:39.144Z,59.57
2019-02-14T21:37:13.920Z,67.20
2019-02-14T21:39:48.094Z,68.07
2019-02-14T21:42:29.230Z,81.87
2019-02-14T21:44:59.194Z,63.63
2019-02-14T21:47:30.510Z,71.97
2019-02-14T21:50:01.782Z,68.47
2019-02-14T21:52:33.326Z,66.60
2019-02-14T21:55:05.059Z,69.83
2019-02-14T21:57:36.456Z,63.33
2019-02-14T22:00:10.965Z,73.43
2019-02-14T22:02:46.884Z,72.57
2019-02-14T22:05:23.990Z,69.10
2019-02-14T22:07:50.841Z,63.70
2019-02-14T22:10:23.825Z,61.10
2019-02-14T22:12:56.439Z,63.73
2019-02-14T22:15:30.236Z,61.13
2019-02-14T22:18:01.477Z,62.37
2019-02-14T22:20:32.738Z,66.13
2019-02-14T22:23:03.975Z,60.40
2019-02-14T22:25:35.039Z,60.87
2019-02-14T22:28:07.485Z,55.37
2019-02-14T22:30:39.075Z,65.20
2019-02-14T22:33:11.770Z,56.60
2019-02-14T22:35:42.894Z,52.73
2019-02-14T22:38:14.276Z,53.93
2019-02-14T22:40:51.805Z,57.33
2019-02-14T22:43:23.103Z,57.73
2019-02-14T22:46:00.434Z,56.33
2019-02-14T22:48:31.610Z,55.07
2019-02-14T22:51:03.581Z,62.40
2019-02-14T22:53:34.806Z,60.73
2019-02-14T22:56:07.893Z,55.73
2019-02-14T22:58:39.232Z,60.47
2019-02-14T23:01:13.362Z,60.23
2019-02-14T23:03:44.854Z,52.83
2019-02-14T23:06:21.636Z,63.47
2019-02-14T23:08:54.293Z,58.17
2019-02-14T23:11:25.305Z,58.70
2019-02-14T23:13:59.593Z,57.33
2019-02-14T23:16:31.049Z,57.03
2019-02-14T23:19:04.164Z,54.87
2019-02-14T23:21:39.319Z,52.57
2019-02-14T23:24:10.507Z,55.27
2019-02-14T23:26:41.629Z,52.07
2019-02-14T23:29:12.809Z,56.47
2019-02-14T23:31:44.712Z,58.07
2019-02-14T23:34:15.908Z,56.47
2019-02-14T23:36:47.052Z,56.70
2019-02-14T23:39:18.216Z,60.33
2019-02-14T23:41:49.833Z,60.97
2019-02-14T23:44:21.550Z,61.80
2019-02-14T23:46:55.997Z,67.13
2019-02-14T23:49:27.167Z,64.33
2019-02-14T23:51:58.886Z,74.27
2019-02-14T23:54:30.560Z,74.90
2019-02-14T23:57:01.503Z,73.43
2019-02-14T23:59:32.454Z,75.90
